Date,TemperatureHighF,TemperatureAvgF,TemperatureLowF,DewpointHighF,DewpointAvgF,DewpointLowF,HumidityHigh,HumidityAvg,HumidityLow,PressureMaxIn,PressureMinIn,WindSpeedMaxMPH,WindSpeedAvgMPH,GustSpeedMaxMPH,PrecipitationSumIn
2013-1-1,24.0,11.6,-9.0,19.0,6.6,-15.0,88,80,74,0.00,40.00,17,6,21,0.00
2013-1-2,32.0,17.6,1.0,25.0,12.1,-3.0,92,79,67,0.00,40.00,14,6,24,0.01
2013-1-3,24.0,12.3,2.0,15.0,5.9,-4.0,87,75,65,0.00,40.00,14,8,20,0.01
2013-1-4,34.0,18.5,2.0,19.0,10.4,-2.0,87,71,51,0.00,40.00,9,4,20,0.07
2013-1-5,24.0,9.0,-3.0,13.0,2.7,-9.0,82,75,59,0.00,40.00,17,7,27,0.01
2013-1-6,21.0,13.4,1.0,13.0,7.8,-3.0,87,78,61,0.00,40.00,10,5,16,0.00
2013-1-7,38.0,26.3,15.0,25.0,18.7,11.0,88,74,57,0.00,40.00,11,5,19,0.02
2013-1-8,38.0,23.6,8.0,28.0,18.2,5.0,91,80,65,0.00,40.00,11,6,19,0.01
2013-1-9,37.0,30.7,26.0,27.0,21.7,18.0,84,70,50,0.00,40.00,18,9,26,0.00
2013-1-10,42.0,35.7,26.0,34.0,28.0,22.0,100,75,54,0.00,40.00,15,11,22,0.31
2013-1-11,35.0,31.1,16.0,35.0,30.6,11.0,100,98,80,0.00,40.00,17,8,26,0.21
2013-1-12,16.0,7.5,3.0,11.0,0.3,-4.0,82,72,62,0.00,40.00,19,14,29,0.01
2013-1-13,14.0,5.6,-1.0,4.0,-2.3,-8.0,79,69,58,0.00,40.00,14,9,22,0.00
2013-1-14,15.0,3.8,-7.0,3.0,-3.8,-13.0,80,71,50,0.00,40.00,10,5,14,0.00
2013-1-15,27.0,14.4,0.0,19.0,4.9,-5.0,83,66,48,0.00,40.00,11,6,21,0.00
2013-1-16,38.0,22.3,1.0,33.0,15.2,-12.0,91,74,50,0.00,40.00,18,11,25,0.00
2013-1-17,25.0,11.9,-2.0,16.0,1.9,-13.0,71,63,52,0.00,40.00,13,6,18,0.00
2013-1-18,41.0,28.2,16.0,30.0,22.7,8.0,99,80,58,0.00,40.00,12,6,19,0.00
2013-1-19,40.0,20.0,0.0,31.0,13.6,-10.0,99,76,61,0.00,40.00,27,14,44,0.00
2013-1-20,10.0,2.3,-9.0,1.0,-7.1,-22.0,75,64,52,0.00,40.00,18,11,29,0.00
2013-1-21,2.0,-5.3,-11.0,-11.0,-17.2,-22.0,70,55,48,0.00,40.00,15,11,26,0.00
2013-1-22,7.0,-1.8,-15.0,-1.0,-10.7,-22.0,73,65,53,0.00,40.00,7,3,11,0.00
2013-1-23,7.0,0.7,-11.0,2.0,-8.2,-24.0,81,66,50,0.00,40.00,20,10,30,0.00
2013-1-24,13.0,0.5,-11.0,3.0,-10.1,-22.0,73,60,57,0.00,40.00,15,10,25,0.00
2013-1-25,22.0,8.8,-4.0,14.0,-1.0,-10.0,75,64,52,0.00,40.00,22,11,34,0.00
2013-1-26,20.0,6.8,-5.0,10.0,-1.1,-11.0,76,70,62,0.00,40.00,12,6,20,0.00
2013-1-27,32.0,23.7,10.0,32.0,20.4,6.0,100,87,72,0.00,40.00,9,4,14,0.00
2013-1-28,35.0,31.9,29.0,34.0,30.7,28.0,100,96,79,0.00,40.00,10,4,15,0.01
2013-1-29,29.0,24.0,17.0,29.0,22.1,13.0,100,92,77,0.00,40.00,17,13,27,0.01
2013-1-30,17.0,8.3,-5.0,13.0,1.5,-14.0,84,73,65,0.00,40.00,18,16,30,0.00
2013-1-31,-6.0,-9.1,-13.0,-17.0,-19.6,-23.0,64,59,56,0.00,40.00,22,16,30,0.00
2013-2-1,8.0,-3.9,-19.0,3.0,-11.8,-27.0,81,68,57,0.00,40.00,11,6,17,0.00
2013-2-2,17.0,7.5,-1.0,13.0,1.6,-7.0,87,77,62,0.00,40.00,18,7,27,0.00
2013-2-3,17.0,12.3,9.0,9.0,6.0,3.0,84,75,65,0.00,40.00,18,8,24,0.00
2013-2-4,23.0,10.7,-3.0,19.0,4.3,-8.0,93,75,57,0.00,40.00,12,7,17,0.00
2013-2-5,32.0,20.3,5.0,31.0,15.1,2.0,96,80,65,0.00,40.00,17,8,25,0.00
2013-2-6,33.0,20.5,2.0,27.0,15.7,-2.0,92,82,75,0.00,40.00,13,6,19,0.01
2013-2-7,24.0,22.1,18.0,21.0,18.8,15.0,97,87,81,0.00,40.00,13,8,18,0.01
2013-2-8,27.0,17.8,2.0,21.0,13.2,-2.0,90,82,70,0.00,40.00,18,9,25,0.00
2013-2-9,34.0,29.8,24.0,31.0,27.2,21.0,100,90,85,0.00,40.00,11,9,18,0.00
2013-2-10,31.0,27.4,25.0,31.0,27.4,25.0,100,100,100,0.00,40.00,22,14,35,0.00
2013-2-11,25.0,21.2,18.0,25.0,19.7,15.0,100,94,85,0.00,40.00,24,16,35,0.00
2013-2-12,30.0,19.3,10.0,23.0,15.2,7.0,92,85,74,0.00,40.00,10,6,15,0.17
2013-2-13,36.0,27.7,10.0,33.0,25.2,7.0,100,90,75,0.00,40.00,15,6,22,0.06
2013-2-14,27.0,17.2,-4.0,25.0,12.2,-9.0,93,81,67,0.00,40.00,18,12,28,0.02
2013-2-15,17.0,5.1,-8.0,6.0,-1.3,-14.0,85,74,61,0.00,40.00,6,4,12,0.00
2013-2-16,19.0,10.7,-10.0,13.0,5.2,-16.0,86,78,72,0.00,40.00,12,7,17,0.00
2013-2-17,35.0,23.5,12.0,30.0,19.4,9.0,99,84,71,0.00,40.00,15,9,22,0.00
2013-2-18,35.0,14.7,0.0,32.0,10.1,-7.0,100,81,70,0.00,40.00,25,18,39,0.00
2013-2-19,1.0,-5.2,-12.0,-6.0,-13.6,-20.0,74,66,58,0.00,40.00,21,16,31,0.00
2013-2-20,6.0,-7.0,-19.0,-4.0,-15.5,-28.0,77,66,53,0.00,40.00,7,4,11,0.00
2013-2-21,17.0,7.8,-11.0,11.0,-0.3,-17.0,80,69,60,0.00,40.00,9,5,12,0.00
2013-2-22,21.0,17.2,10.0,16.0,13.5,7.0,90,85,80,0.00,40.00,14,8,19,0.00
2013-2-23,30.0,11.8,-5.0,13.0,4.5,-9.0,90,73,48,0.00,40.00,6,2,7,0.01
2013-2-24,23.0,7.3,-8.0,14.0,1.8,-14.0,89,78,64,0.00,40.00,6,2,9,0.01
2013-2-25,30.0,19.3,7.0,22.0,16.1,4.0,100,87,73,0.00,40.00,6,2,10,0.00
2013-2-26,25.0,21.0,17.0,23.0,20.1,16.0,100,96,90,0.00,40.00,11,6,16,0.00
2013-2-27,27.0,20.8,14.0,24.0,17.0,11.0,94,85,73,0.00,40.00,20,15,30,0.00
2013-2-28,26.0,22.7,18.0,21.0,18.3,14.0,89,83,79,0.00,40.00,14,10,22,0.00
2013-3-1,28.0,16.2,1.0,17.0,10.2,-3.0,90,78,57,0.00,40.00,9,4,12,0.00
2013-3-2,25.0,12.6,-4.0,17.0,6.5,-9.0,86,76,66,0.00,40.00,10,5,14,0.00
2013-3-3,32.0,23.9,15.0,24.0,18.7,12.0,93,81,69,0.00,40.00,17,11,28,0.00
2013-3-4,28.0,26.0,24.0,28.0,25.3,22.0,100,97,93,0.00,40.00,17,12,26,0.00
2013-3-5,26.0,23.8,20.0,26.0,21.3,16.0,100,90,82,0.00,40.00,19,13,31,0.03
2013-3-6,31.0,20.6,18.0,17.0,14.6,13.0,87,78,55,0.00,40.00,9,6,16,0.01
2013-3-7,27.0,21.4,17.0,19.0,16.5,15.0,91,81,71,0.00,40.00,16,11,22,0.01
2013-3-8,32.0,21.8,8.0,31.0,16.2,-99.9,100,82,63,0.00,40.00,10,5,16,0.14
2013-3-9,34.0,31.4,28.0,34.0,27.5,-99.9,100,97,92,0.00,40.00,21,8,30,0.97
2013-3-10,28.0,22.1,13.0,27.0,18.2,7.0,95,85,76,0.00,40.00,24,18,36,0.08
2013-3-11,29.0,16.1,5.0,24.0,8.9,0.0,84,73,60,0.00,40.00,15,8,20,0.00
2013-3-12,29.0,23.1,18.0,25.0,17.9,15.0,89,80,71,0.00,40.00,23,14,30,0.00
2013-3-13,26.0,18.3,2.0,23.0,11.1,-2.0,89,74,51,0.00,40.00,12,7,17,0.00
2013-3-14,43.0,30.9,22.0,30.0,26.0,21.0,100,83,58,0.00,40.00,11,5,17,0.00
2013-3-15,34.0,27.9,21.0,31.0,26.5,20.0,100,94,86,0.00,40.00,16,10,24,0.00
2013-3-16,21.0,10.4,3.0,20.0,4.4,-4.0,95,77,67,0.00,40.00,16,12,25,0.00
2013-3-17,29.0,15.0,1.0,29.0,9.1,-3.0,100,78,65,0.00,40.00,22,12,32,0.00
2013-3-18,35.0,18.5,9.0,35.0,11.7,0.0,100,75,63,0.00,40.00,27,21,41,0.01
2013-3-19,18.0,10.5,3.0,6.0,-0.2,-7.0,74,62,49,0.00,40.00,17,13,25,0.01
2013-3-20,19.0,10.4,3.0,4.0,-0.0,-5.0,73,63,51,0.00,40.00,17,12,22,0.00
2013-3-21,23.0,7.4,-8.0,9.0,-1.1,-14.0,80,68,50,0.00,40.00,7,4,11,0.02
2013-3-22,30.0,12.7,-5.0,14.0,4.3,-10.0,83,70,49,0.00,40.00,6,3,9,0.00
2013-3-23,29.0,21.7,14.0,17.0,12.8,8.0,82,69,54,0.00,40.00,10,6,13,0.00
2013-3-24,30.0,22.1,14.0,25.0,16.4,10.0,85,78,68,0.00,40.00,18,12,24,0.00
2013-3-25,30.0,24.6,17.0,20.0,18.0,12.0,86,76,61,0.00,40.00,17,14,27,0.00
2013-3-26,30.0,18.6,9.0,18.0,11.9,4.0,88,75,60,0.00,40.00,8,5,12,0.00
2013-3-27,39.0,17.9,2.0,27.0,11.7,-3.0,87,77,61,0.00,40.00,12,4,16,0.00
2013-3-28,43.0,37.6,27.0,32.0,30.9,25.0,93,77,65,0.00,40.00,11,5,16,0.00
2013-3-29,48.0,35.5,24.0,37.0,31.5,24.0,98,86,63,0.00,40.00,9,4,12,0.00
2013-3-30,43.0,36.5,31.0,35.0,33.4,30.0,100,89,70,0.00,40.00,12,7,19,0.00
2013-3-31,35.0,29.8,21.0,32.0,22.0,13.0,98,73,56,0.00,40.00,20,14,31,0.00
2013-4-1,30.0,22.4,16.0,17.0,13.5,10.0,94,69,52,0.00,40.00,12,8,19,0.00
2013-4-2,35.0,23.8,13.0,20.0,16.1,10.0,94,74,47,0.00,40.00,8,4,11,0.00
2013-4-3,58.0,37.0,18.0,42.0,28.0,16.0,94,72,52,0.00,40.00,16,8,26,0.00
2013-4-4,49.0,34.7,26.0,35.0,26.9,21.0,86,73,59,0.00,40.00,17,12,26,0.00
2013-4-5,37.0,30.2,21.0,31.0,25.0,18.0,93,81,70,0.00,40.00,17,11,29,0.00
2013-4-6,44.0,37.3,34.0,36.0,32.5,31.0,89,83,71,0.00,40.00,16,11,24,0.00
2013-4-7,41.0,36.0,31.0,40.0,32.3,28.0,100,86,75,0.00,40.00,13,6,19,0.13
2013-4-8,40.0,35.2,26.0,40.0,34.0,22.0,100,95,85,0.00,40.00,21,12,31,0.13
2013-4-9,29.0,24.1,20.0,22.0,17.6,12.0,86,76,69,0.00,40.00,25,21,36,0.00
2013-4-10,37.0,32.8,27.0,30.0,21.6,19.0,96,64,47,0.00,40.00,19,14,28,0.00
2013-4-11,34.0,30.9,28.0,32.0,29.7,27.0,98,95,91,0.00,40.00,15,11,21,0.13
2013-4-12,35.0,30.4,28.0,28.0,26.2,25.0,97,85,69,0.00,40.00,13,11,20,0.01
2013-4-13,37.0,31.0,26.0,27.0,24.9,24.0,94,78,63,0.00,40.00,10,7,15,0.00
2013-4-14,35.0,31.2,29.0,33.0,29.3,25.0,99,93,83,0.00,40.00,20,13,30,0.43
2013-4-15,40.0,35.5,31.0,32.0,28.4,25.0,93,76,63,0.00,40.00,20,15,30,0.08
2013-4-16,38.0,31.8,23.0,28.0,25.2,21.0,95,77,65,0.00,40.00,13,8,19,0.00
2013-4-17,38.0,33.8,30.0,33.0,30.5,28.0,97,88,76,0.00,40.00,15,10,21,0.05
2013-4-18,33.0,31.7,29.0,32.0,29.8,24.0,98,93,79,0.00,40.00,20,16,32,0.15
2013-4-19,35.0,30.1,25.0,24.0,21.1,19.0,80,69,58,0.00,40.00,21,16,31,0.01
2013-4-20,38.0,29.8,18.0,30.0,19.3,15.0,96,67,40,0.00,40.00,12,8,20,0.00
2013-4-21,44.0,37.4,31.0,40.0,33.4,29.0,96,86,71,0.00,40.00,15,11,23,0.26
2013-4-22,33.0,30.8,28.0,30.0,27.0,21.0,94,86,74,0.00,40.00,16,11,24,0.06
2013-4-23,39.0,29.9,19.0,26.0,20.8,15.0,92,70,52,0.00,40.00,13,9,20,0.04
2013-4-24,46.0,35.9,25.0,36.0,27.7,21.0,96,73,53,0.00,40.00,19,11,28,0.04
2013-4-25,51.0,39.2,24.0,39.0,27.8,20.0,87,65,46,0.00,40.00,15,9,22,0.03
2013-4-26,69.0,51.8,30.0,42.0,35.9,29.0,98,61,25,0.00,40.00,15,7,22,0.00
2013-4-27,79.0,56.8,30.0,42.0,35.9,30.0,100,56,19,0.00,40.00,15,7,21,0.00
2013-4-28,74.0,59.7,48.0,46.0,42.9,29.0,76,56,32,0.00,40.00,14,8,23,0.00
2013-4-29,74.0,55.0,33.0,43.0,32.4,28.0,87,48,20,0.00,40.00,12,7,21,0.00
2013-4-30,65.0,58.4,44.0,52.0,36.6,27.0,83,48,24,0.00,40.00,20,13,32,0.00
2013-5-1,44.0,38.6,33.0,31.0,24.6,20.0,76,57,46,0.00,40.00,19,14,28,0.00
2013-5-2,45.0,36.3,28.0,27.0,25.0,23.0,90,66,42,0.00,40.00,19,11,29,0.00
2013-5-3,52.0,38.0,24.0,25.0,22.9,21.0,90,59,31,0.00,40.00,17,11,26,0.00
2013-5-4,43.0,39.5,38.0,38.0,33.0,23.0,97,79,44,0.00,40.00,17,11,23,0.06
2013-5-5,49.0,43.3,38.0,42.0,39.5,37.0,97,87,73,0.00,40.00,9,7,13,0.03
2013-5-6,70.0,53.5,42.0,47.0,43.0,40.0,94,71,41,0.00,40.00,6,4,13,0.00
2013-5-7,78.0,57.3,35.0,50.0,42.5,35.0,100,66,26,0.00,40.00,11,5,20,0.00
2013-5-8,65.0,58.1,52.0,56.0,52.5,47.0,99,82,67,0.00,40.00,11,5,17,0.07
2013-5-9,68.0,57.2,49.0,54.0,48.0,38.0,93,73,49,0.00,40.00,14,10,25,0.01
2013-5-10,73.0,55.7,38.0,46.0,31.7,-99.9,79,46,19,0.00,40.00,24,9,38,0.00
2013-5-11,54.0,46.2,36.0,32.0,22.5,16.0,63,42,22,0.00,40.00,24,15,36,0.00
2013-5-12,64.0,46.7,28.0,29.0,20.5,16.0,83,42,17,0.00,40.00,9,5,19,0.00
2013-5-13,90.0,66.9,45.0,48.0,37.0,25.0,62,35,18,0.00,40.00,19,10,28,0.00
2013-5-14,93.0,70.4,46.0,49.0,42.6,28.0,87,45,12,0.00,40.00,25,12,37,0.00
2013-5-15,83.0,65.6,45.0,48.0,44.0,39.0,89,51,21,0.00,40.00,13,7,22,0.00
2013-5-16,86.0,61.7,44.0,54.0,23.9,-99.9,85,48,17,0.00,40.00,12,5,20,0.00
2013-5-17,73.0,64.5,58.0,61.0,46.5,-99.9,92,65,38,0.00,40.00,16,11,27,0.00
2013-5-18,87.0,70.5,59.0,66.0,60.2,57.0,97,74,39,0.00,40.00,15,7,26,0.17
2013-5-19,75.0,68.3,62.0,66.0,62.3,59.0,100,82,58,0.00,40.00,17,9,50,0.78
2013-5-20,67.0,63.0,60.0,64.0,59.5,55.0,100,89,67,0.00,40.00,18,7,25,0.27
2013-5-21,60.0,54.5,50.0,57.0,53.3,49.0,99,96,89,0.00,40.00,12,9,19,1.03
2013-5-22,57.0,50.7,46.0,51.0,47.8,45.0,100,91,71,0.00,40.00,15,12,25,0.41
2013-5-23,65.0,53.5,40.0,48.0,42.6,39.0,100,71,39,0.00,40.00,8,5,20,0.01
2013-5-24,66.0,54.7,41.0,53.0,43.5,38.0,88,67,41,0.00,40.00,16,9,24,0.03
2013-5-25,61.0,56.8,54.0,53.0,51.1,49.0,88,81,71,0.00,40.00,16,13,29,0.03
2013-5-26,55.0,53.0,51.0,52.0,49.1,46.0,96,86,82,0.00,40.00,17,12,32,0.00
2013-5-27,62.0,57.1,53.0,56.0,53.8,51.0,100,89,79,0.00,40.00,14,9,19,0.00
2013-5-28,72.0,61.0,56.0,60.0,56.5,54.0,98,86,65,0.00,40.00,10,6,16,0.00
2013-5-29,78.0,64.3,53.0,72.0,61.0,53.0,100,90,76,0.00,40.00,15,8,25,0.10
2013-5-30,78.0,70.1,64.0,65.0,61.4,58.0,97,76,52,0.00,40.00,18,11,29,0.19
2013-5-31,65.0,61.5,57.0,62.0,54.4,50.0,90,78,71,0.00,40.00,20,12,30,0.21
2013-6-1,60.0,54.3,51.0,57.0,50.6,46.0,97,88,74,0.00,40.00,22,14,34,0.01
2013-6-2,66.0,55.9,45.0,46.0,43.4,39.0,95,66,39,0.00,40.00,11,7,20,0.00
2013-6-3,70.0,57.2,40.0,47.0,43.1,39.0,98,63,40,0.00,40.00,16,8,25,0.00
2013-6-4,70.0,61.8,56.0,62.0,54.8,44.0,91,79,56,0.00,40.00,18,10,27,0.15
2013-6-5,66.0,59.8,55.0,57.0,51.8,48.0,95,76,54,0.00,40.00,9,7,19,0.07
2013-6-6,62.0,57.0,50.0,53.0,50.9,49.0,95,81,66,0.00,40.00,9,6,15,0.05
2013-6-7,71.0,59.0,44.0,53.0,48.6,44.0,100,72,46,0.00,40.00,9,4,14,0.00
2013-6-8,65.0,60.1,58.0,57.0,53.0,48.0,93,78,61,0.00,40.00,14,10,24,0.11
2013-6-9,61.0,58.7,52.0,58.0,57.1,52.0,100,95,86,0.00,40.00,12,8,21,0.99
2013-6-10,77.0,62.9,49.0,62.0,57.3,49.0,100,84,58,0.00,40.00,10,5,15,0.01
2013-6-11,78.0,66.0,56.0,64.0,58.5,50.0,100,80,44,0.00,40.00,11,5,18,0.01
2013-6-12,73.0,64.9,59.0,60.0,55.4,52.0,83,72,53,0.00,40.00,23,8,33,0.17
2013-6-13,78.0,67.4,55.0,58.0,53.7,50.0,86,64,40,0.00,40.00,8,6,17,0.01
2013-6-14,82.0,71.9,61.0,67.0,60.8,57.0,86,69,53,0.00,40.00,17,10,27,0.00
2013-6-15,81.0,71.5,62.0,65.0,55.4,46.0,99,62,30,0.00,40.00,10,7,20,0.00
2013-6-16,84.0,70.1,52.0,58.0,53.5,49.0,92,59,31,0.00,40.00,18,7,31,0.00
2013-6-17,79.0,68.9,57.0,59.0,54.9,52.0,90,63,40,0.00,40.00,14,8,22,0.02
2013-6-18,80.0,67.8,54.0,60.0,56.3,53.0,95,70,42,0.00,40.00,7,4,15,0.02
2013-6-19,88.0,74.7,58.0,64.0,59.1,55.0,95,62,34,0.00,40.00,10,6,17,0.00
2013-6-20,86.0,74.3,68.0,68.0,65.1,61.0,92,74,53,0.00,40.00,14,8,24,0.01
2013-6-22,80.0,75.6,71.0,69.0,66.8,64.0,91,75,62,0.00,40.00,9,6,16,0.03
2013-6-23,79.0,71.7,65.0,70.0,63.9,58.0,99,78,51,0.00,40.00,16,10,25,0.36
2013-6-24,79.0,70.1,56.0,69.0,64.1,56.0,100,83,65,0.00,40.00,13,5,17,0.01
2013-6-25,89.0,76.4,67.0,75.0,70.5,66.0,98,84,57,0.00,40.00,10,7,19,0.00
2013-6-26,87.0,77.0,66.0,73.0,65.3,57.0,99,71,37,0.00,40.00,15,7,24,0.00
2013-6-27,85.0,76.5,67.0,66.0,59.1,53.0,87,58,35,0.00,40.00,19,11,28,0.01
2013-6-28,80.0,73.7,66.0,60.0,57.8,56.0,73,58,46,0.00,40.00,19,12,32,0.00
2013-6-29,81.0,71.3,63.0,61.0,57.4,53.0,86,64,39,0.00,40.00,15,11,23,0.00
2013-6-30,80.0,69.0,56.0,60.0,54.6,47.0,95,64,32,0.00,40.00,8,4,15,0.00
2013-7-1,86.0,72.2,57.0,62.0,56.3,47.0,97,63,28,0.00,40.00,8,4,15,0.00
2013-7-2,86.0,70.9,56.0,64.0,59.0,53.0,99,71,32,0.00,40.00,7,3,14,0.00
2013-7-3,84.0,72.6,57.0,63.0,57.4,53.0,100,64,36,0.00,40.00,10,5,16,0.00
2013-7-4,88.0,76.0,59.0,64.0,59.0,53.0,90,58,39,0.00,40.00,15,8,23,0.00
2013-7-5,89.0,78.7,70.0,68.0,63.4,58.0,88,60,39,0.00,40.00,11,5,18,0.00
2013-7-6,82.0,75.2,71.0,73.0,68.4,66.0,100,80,66,0.00,40.00,9,5,15,0.31
2013-7-7,89.0,77.5,63.0,74.0,69.3,61.0,100,78,56,0.00,40.00,13,6,23,0.26
2013-7-8,90.0,73.2,62.0,71.0,64.5,61.0,97,76,48,0.00,40.00,7,3,11,0.00
2013-7-9,83.0,74.4,65.0,69.0,66.7,59.0,100,78,59,0.00,40.00,20,10,38,0.59
2013-7-10,81.0,69.1,59.0,62.0,55.0,-99.9,94,67,43,0.00,40.00,8,4,13,0.02
2013-7-11,85.0,72.1,56.0,68.0,61.8,55.0,99,73,51,0.00,40.00,15,7,25,0.00
2013-7-12,91.0,80.6,70.0,73.0,67.6,61.0,77,65,54,0.00,40.00,16,10,30,0.00
2013-7-13,84.0,78.7,75.0,75.0,71.9,68.0,94,80,66,0.00,40.00,12,6,20,0.00
2013-7-14,75.0,71.7,70.0,71.0,69.1,66.0,100,92,79,0.00,40.00,9,6,17,1.16
2013-7-15,85.0,75.8,67.0,71.0,68.4,65.0,100,80,53,0.00,40.00,11,5,19,0.01
2013-7-16,87.0,82.9,70.0,69.0,67.9,67.0,95,62,51,0.00,40.00,13,9,22,0.00
2013-7-17,89.0,79.5,69.0,72.0,69.6,67.0,95,74,53,0.00,40.00,14,6,21,0.00
2013-7-18,90.0,83.0,72.0,76.0,71.3,68.0,97,69,51,0.00,40.00,17,10,27,0.00
2013-7-19,83.0,76.7,65.0,71.0,63.6,60.0,90,65,47,0.00,40.00,13,9,21,0.00
2013-7-20,80.0,69.2,60.0,65.0,62.7,59.0,99,81,57,0.00,40.00,9,5,17,0.00
2013-7-21,84.0,74.3,64.0,70.0,65.0,60.0,92,74,53,0.00,40.00,7,5,13,0.00
2013-7-22,79.0,72.4,60.0,70.0,63.7,56.0,98,76,56,0.00,40.00,14,8,23,0.04
2013-7-23,76.0,66.2,55.0,59.0,56.2,53.0,94,72,46,0.00,40.00,8,6,15,0.04
2013-7-24,82.0,69.7,58.0,64.0,58.9,55.0,98,72,45,0.00,40.00,7,3,13,0.00
2013-7-25,81.0,70.3,58.0,66.0,61.9,53.0,100,77,50,0.00,40.00,10,5,15,0.01
2013-7-26,70.0,62.6,54.0,54.0,50.8,45.0,86,67,43,0.00,40.00,17,12,27,0.01
2013-7-27,70.0,59.8,49.0,49.0,46.2,43.0,93,64,38,0.00,40.00,13,8,23,0.00
2013-7-28,75.0,61.2,46.0,55.0,48.8,45.0,99,68,38,0.00,40.00,10,5,17,0.00
2013-7-29,75.0,60.3,45.0,62.0,53.4,45.0,100,81,49,0.00,40.00,8,4,15,0.04
2013-7-30,79.0,68.2,61.0,66.0,62.3,59.0,99,82,61,0.00,40.00,6,4,13,0.04
2013-7-31,80.0,67.4,54.0,62.0,57.7,52.0,100,76,41,0.00,40.00,12,5,21,0.01
2013-8-1,80.0,65.0,51.0,62.0,54.8,50.0,99,74,42,0.00,40.00,9,4,15,0.01
2013-8-2,76.0,65.6,55.0,59.0,55.6,51.0,98,73,42,0.00,40.00,7,4,14,0.00
2013-8-3,77.0,64.3,51.0,57.0,52.5,48.0,100,70,39,0.00,40.00,10,5,16,0.00
2013-8-4,76.0,62.8,49.0,62.0,54.3,48.0,98,76,46,0.00,40.00,10,4,15,0.01
2013-8-5,78.0,69.7,60.0,68.0,64.1,60.0,100,84,58,0.00,40.00,11,6,22,0.99
2013-8-6,84.0,70.7,57.0,67.0,62.6,57.0,100,79,51,0.00,40.00,17,8,39,0.00
2013-8-7,76.0,65.8,56.0,62.0,56.0,52.0,96,74,44,0.00,40.00,9,5,18,0.00
2013-8-8,78.0,65.8,57.0,63.0,58.9,55.0,97,80,57,0.00,40.00,9,4,13,0.01
2013-8-9,76.0,63.8,53.0,57.0,53.7,51.0,98,73,43,0.00,40.00,10,6,18,0.01
2013-8-10,75.0,63.9,49.0,61.0,56.0,49.0,100,78,51,0.00,40.00,5,3,9,0.00
2013-8-11,81.0,67.6,56.0,66.0,61.2,56.0,100,83,51,0.00,40.00,9,4,14,0.00
2013-8-21,88.0,75.4,66.0,72.0,67.1,59.0,100,78,46,0.00,40.00,9,6,17,0.00
2013-8-22,81.0,70.8,56.0,59.0,55.2,50.0,96,61,35,0.00,40.00,8,5,15,0.00
2013-8-23,85.0,70.1,52.0,72.0,63.4,52.0,100,81,60,0.00,40.00,12,6,20,0.00
2013-8-24,92.0,81.1,72.0,75.0,71.9,68.0,97,76,52,0.00,40.00,15,10,26,0.00
2013-8-25,94.0,84.9,78.0,76.0,73.6,70.0,88,70,56,0.00,40.00,12,8,19,0.00
2013-8-26,92.0,82.9,70.0,77.0,74.3,70.0,100,78,54,0.00,40.00,12,5,18,0.00
2013-8-27,90.0,77.5,71.0,78.0,74.6,71.0,100,92,61,0.00,40.00,9,5,16,0.00
2013-9-24,75.0,61.5,50.0,56.0,53.2,50.0,100,76,49,0.00,40.00,6,4,10,0.00
2013-9-25,77.0,61.8,47.0,58.0,51.7,47.0,100,74,38,0.00,40.00,14,7,23,0.00
2013-9-26,85.0,70.7,60.0,62.0,57.5,53.0,87,66,41,0.00,40.00,18,11,29,0.00
2013-9-27,79.0,67.8,55.0,66.0,60.8,53.0,96,80,58,0.00,40.00,16,8,23,0.15
2013-9-28,65.0,55.5,49.0,54.0,48.4,42.0,98,79,44,0.00,40.00,16,8,27,0.31
2013-9-29,79.0,62.2,42.0,49.0,45.6,40.0,93,59,29,0.00,40.00,13,7,22,0.03
2013-9-30,83.0,68.0,55.0,57.0,49.4,45.0,82,53,36,0.00,40.00,12,6,18,0.00
2013-12-26,34.0,27.3,15.0,27.0,23.1,14.0,96,84,67,0.00,40.00,5,2,10,0.09
2013-12-27,44.0,33.8,19.0,33.0,27.9,18.0,100,80,62,0.00,40.00,15,8,23,0.01
2013-12-28,41.0,18.5,-6.0,32.0,14.4,-16.0,98,84,62,0.00,40.00,28,14,45,0.00
2013-12-29,-1.0,-9.4,-16.0,-16.0,-20.2,-24.0,71,58,46,0.00,40.00,8,0,39,0.00
2013-12-30,8.0,-1.1,-9.0,1.0,-8.0,-16.0,76,71,63,0.00,40.00,9,2,14,0.00
2013-12-31,-1.0,-7.5,-16.0,-7.0,-15.2,-25.0,75,68,61,0.00,40.00,0,0,0,0.00
2014-1-1,1.0,-4.2,-13.0,-9.0,-13.9,-20.0,74,62,46,0.00,40.00,5,2,7,0.00